createdAt,value
2023-01-18T00:03:01.017Z,18.3
2023-01-18T00:08:41.344Z,18.2
2023-01-18T00:14:21.571Z,18.2
2023-01-18T00:20:02.470Z,18.2
2023-01-18T00:25:44.096Z,18.1
2023-01-18T00:31:24.245Z,18.1
2023-01-18T00:37:05.722Z,18.1
2023-01-18T00:43:07.161Z,18.1
2023-01-18T00:48:47.068Z,18.1
2023-01-18T00:54:27.771Z,18
2023-01-18T01:00:07.906Z,18
2023-01-18T01:05:47.816Z,18
2023-01-18T01:11:28.182Z,18
2023-01-18T01:17:08.511Z,18
2023-01-18T01:22:48.514Z,18
2023-01-18T01:28:31.841Z,17.9
2023-01-18T01:34:11.852Z,17.9
2023-01-18T01:39:51.822Z,17.9
2023-01-18T01:45:40.814Z,17.9
2023-01-18T01:51:21.011Z,17.9
2023-01-18T01:57:01.042Z,17.9
2023-01-18T02:02:41.455Z,17.9
2023-01-18T02:08:22.168Z,17.8
2023-01-18T02:14:02.917Z,17.8
2023-01-18T02:24:47.328Z,17.8
2023-01-18T02:30:27.480Z,17.8
2023-01-18T02:36:10.520Z,17.7
2023-01-18T02:41:50.546Z,17.7
2023-01-18T02:47:30.933Z,17.7
2023-01-18T02:53:20.233Z,17.7
2023-01-18T02:59:00.172Z,17.7
2023-01-18T03:04:40.126Z,17.7
2023-01-18T03:10:20.264Z,17.6
2023-01-18T03:16:00.532Z,17.7
2023-01-18T03:21:41.001Z,17.6
2023-01-18T03:27:21.048Z,17.6
2023-01-18T03:33:01.062Z,17.6
2023-01-18T03:38:41.241Z,17.6
2023-01-18T03:44:21.526Z,17.6
2023-01-18T03:50:09.509Z,17.6
2023-01-18T03:55:49.578Z,17.5
2023-01-18T04:01:29.801Z,17.5
2023-01-18T04:07:11.333Z,17.5
2023-01-18T04:12:51.441Z,17.5
2023-01-18T04:18:31.737Z,17.5
2023-01-18T04:24:11.882Z,17.5
2023-01-18T04:29:52.143Z,17.5
2023-01-18T04:41:44.698Z,17.4
2023-01-18T04:47:30.801Z,17.4
2023-01-18T04:53:11.382Z,17.4
2023-01-18T04:58:51.924Z,17.4
2023-01-18T05:04:31.862Z,17.4
2023-01-18T05:10:12.157Z,17.4
2023-01-18T05:15:52.865Z,17.4
2023-01-18T05:21:50.188Z,17.4
2023-01-18T05:27:30.293Z,17.3
2023-01-18T05:33:10.213Z,17.3
2023-01-18T05:38:50.295Z,17.3
2023-01-18T05:44:30.218Z,17.4
2023-01-18T05:50:10.746Z,17.6
2023-01-18T05:55:51.232Z,17.7
2023-01-18T06:01:31.438Z,17.8
2023-01-18T06:07:12.100Z,17.8
2023-01-18T06:12:53.030Z,17.9
2023-01-18T06:18:36.543Z,17.9
2023-01-18T06:24:16.511Z,17.7
2023-01-18T06:29:56.715Z,17.6
2023-01-18T06:35:37.208Z,17.6
2023-01-18T07:25:17.995Z,17.5
2023-01-18T07:30:58.303Z,17.4
2023-01-18T07:36:39.440Z,17.3
2023-01-18T07:42:19.807Z,17.3
2023-01-18T07:47:59.788Z,17.3
2023-01-18T07:53:40.056Z,17.2
2023-01-18T07:59:31.973Z,17.2
2023-01-18T08:05:12.304Z,17.2
2023-01-18T08:10:52.693Z,17.2
2023-01-18T08:16:33.774Z,17.2
2023-01-18T08:22:13.708Z,17.2
2023-01-18T08:27:53.640Z,17.2
2023-01-18T08:33:34.170Z,17.2
2023-01-18T08:44:18.579Z,17.1
2023-01-18T08:49:59.050Z,17.1
2023-01-18T08:55:39.078Z,17.1
2023-01-18T09:01:19.404Z,17.1
2023-01-18T09:07:01.330Z,17.1
2023-01-18T09:12:41.963Z,17.1
2023-01-18T09:18:21.939Z,17.1
2023-01-18T09:24:02.371Z,17.1
2023-01-18T09:29:42.747Z,17.1
2023-01-18T09:35:22.816Z,17.1
2023-01-18T09:41:03.295Z,17.1
2023-01-18T09:46:43.726Z,17.1
2023-01-18T09:52:24.531Z,17.1
2023-01-18T09:58:04.993Z,17.1
2023-01-18T10:03:45.200Z,17.1
2023-01-18T10:09:31.874Z,17.1
2023-01-18T10:15:12.668Z,17.1
2023-01-18T10:20:53.155Z,17.2
2023-01-18T10:26:33.327Z,17.2
2023-01-18T10:32:13.838Z,17.2
2023-01-18T10:38:00.838Z,17.2
2023-01-18T10:43:42.519Z,17.2
2023-01-18T10:49:22.941Z,17.1
2023-01-18T10:55:03.087Z,17.1
2023-01-18T11:00:43.331Z,17.1
2023-01-18T11:11:29.355Z,17.1
2023-01-18T11:17:09.686Z,17.1
2023-01-18T11:22:50.329Z,17.1
2023-01-18T11:28:30.484Z,17.1
2023-01-18T11:34:11.043Z,17.1
2023-01-18T11:39:51.197Z,17.1
2023-01-18T11:45:31.301Z,17.1
2023-01-18T11:51:12.534Z,17.1
2023-01-18T11:56:52.751Z,17.1
2023-01-18T12:02:33.133Z,17.1
2023-01-18T12:08:14.541Z,17.1
2023-01-18T12:13:54.862Z,17.1
2023-01-18T12:19:35.096Z,17.1
2023-01-18T12:25:15.356Z,17.1
2023-01-18T12:30:55.816Z,17
2023-01-18T12:36:36.290Z,17
2023-01-18T12:42:16.267Z,17
2023-01-18T12:47:57.737Z,17
2023-01-18T12:58:45.537Z,17
2023-01-18T13:09:31.524Z,17
2023-01-18T13:15:11.777Z,17
2023-01-18T13:20:52.738Z,17
2023-01-18T13:26:32.866Z,16.9
2023-01-18T13:32:12.961Z,16.9
2023-01-18T13:37:55.691Z,16.9
2023-01-18T13:43:39.092Z,16.9
2023-01-18T13:49:35.630Z,16.9
2023-01-18T13:55:19.331Z,16.9
2023-01-18T14:01:11.250Z,16.9
2023-01-18T14:06:52.667Z,16.9
2023-01-18T14:12:33.121Z,16.8
2023-01-18T14:18:24.659Z,16.8
2023-01-18T14:24:05.187Z,16.8
2023-01-18T14:29:45.645Z,16.8
2023-01-18T14:35:26.790Z,16.8
2023-01-18T14:41:06.946Z,16.8
2023-01-18T14:46:49.839Z,16.8
2023-01-18T14:52:30.615Z,16.8
2023-01-18T14:58:10.888Z,16.8
2023-01-18T15:03:53.998Z,16.8
2023-01-18T15:09:34.171Z,16.8
2023-01-18T15:15:14.538Z,16.8
2023-01-18T15:20:55.450Z,16.7
2023-01-18T15:26:39.064Z,16.7
2023-01-18T15:32:19.219Z,16.7
2023-01-18T15:38:00.369Z,16.7
2023-01-18T15:43:52.318Z,16.7
2023-01-18T15:49:32.359Z,16.7
2023-01-18T15:55:12.790Z,16.6
2023-01-18T16:00:53.201Z,16.6
2023-01-18T16:06:34.817Z,16.6
2023-01-18T16:12:15.754Z,16.6
2023-01-18T16:17:56.458Z,16.6
2023-01-18T16:23:42.382Z,16.6
2023-01-18T16:29:22.721Z,16.6
2023-01-18T16:35:12.256Z,16.6
2023-01-18T16:40:52.383Z,16.5
2023-01-18T16:46:32.699Z,16.5
2023-01-18T16:52:12.912Z,16.5
2023-01-18T16:57:53.486Z,16.5
2023-01-18T17:03:34.062Z,16.5
2023-01-18T17:09:14.917Z,16.5
2023-01-18T17:14:54.908Z,16.5
2023-01-18T17:25:40.012Z,16.5
2023-01-18T17:31:21.009Z,16.5
2023-01-18T17:37:01.474Z,16.5
2023-01-18T17:42:41.830Z,16.5
2023-01-18T17:48:25.961Z,16.5
2023-01-18T17:54:52.423Z,16.5
2023-01-18T18:00:32.557Z,16.5
2023-01-18T18:06:18.966Z,17
2023-01-18T18:12:26.278Z,17.2
2023-01-18T18:18:09.660Z,17.4
2023-01-18T18:24:14.826Z,17.5
2023-01-18T18:29:57.861Z,17.5
2023-01-18T18:35:37.965Z,17.6
2023-01-18T18:41:18.348Z,17.6
2023-01-18T18:46:58.982Z,17.6
2023-01-18T18:52:48.581Z,17.7
2023-01-18T18:58:29.455Z,17.8
2023-01-18T19:04:10.196Z,17.8
2023-01-18T19:09:50.253Z,17.9
2023-01-18T19:15:31.353Z,17.9
2023-01-18T19:21:17.236Z,18
2023-01-18T19:27:31.333Z,18
2023-01-18T19:33:17.488Z,18
2023-01-18T19:39:00.131Z,18
2023-01-18T19:44:44.976Z,18
2023-01-18T19:50:25.878Z,18.1
2023-01-18T20:01:20.433Z,18.1
2023-01-18T20:07:19.777Z,18.1
2023-01-18T20:13:00.556Z,18.1
2023-01-18T20:18:47.794Z,18.1
2023-01-18T20:24:31.023Z,18.1
2023-01-18T20:30:11.150Z,18.1
2023-01-18T20:35:51.160Z,18.2
2023-01-18T20:41:31.345Z,18.2
2023-01-18T20:47:11.708Z,18.2
2023-01-18T20:52:52.182Z,18.2
2023-01-18T20:58:40.910Z,18.2
2023-01-18T21:04:22.574Z,18.2
2023-01-18T21:10:03.756Z,19.3
2023-01-18T21:15:44.198Z,20
2023-01-18T21:21:26.561Z,20.2
2023-01-18T21:27:06.982Z,20.7
2023-01-18T21:32:47.344Z,21
2023-01-18T21:38:27.688Z,21
2023-01-18T21:44:08.389Z,21.1
2023-01-18T21:50:18.959Z,21.3
2023-01-18T21:55:59.829Z,20.9
2023-01-18T22:01:39.659Z,20.1
2023-01-18T22:12:54.388Z,19.5
2023-01-18T22:18:34.987Z,19.3
2023-01-18T22:29:20.390Z,19.1
2023-01-18T22:40:05.225Z,19
2023-01-18T22:45:54.512Z,18.9
2023-01-18T22:51:35.499Z,18.9
2023-01-18T22:57:15.644Z,18.8
2023-01-18T23:02:56.400Z,18.8
2023-01-18T23:08:36.785Z,18.8
2023-01-18T23:14:16.764Z,18.8
2023-01-18T23:19:57.430Z,18.7
2023-01-18T23:30:43.600Z,18.7
2023-01-18T23:41:32.889Z,18.7
2023-01-18T23:47:13.433Z,18.7
2023-01-18T23:52:53.797Z,18.7
2023-01-18T23:58:44.058Z,18.7
